Airfield :
LOGIN :

Register | Disclaimer

   EN    FR    IT 

 










Legend :    VFR   Marginal VFR   IFR   Intensive IFR   Very Intensive IFR
Visi :
Ceiling :
>= 8 km
>= 3000ft
5 to 8 km
1000 to 3000 ft
1500m to 5 km
500 to 1000 ft
800 to 1500m
200 to 500 ft
< 800m
< 200 ft
Symbols :   Thunderstorms  Fog  Heavy snow  Heavy precipitations  Wind > 20 kt
SIGMETs :     Misc.  Thunderstorms  Icing  Turbulence  Mountain Waves  Volcanic Ashes






- Airport Elevation : 102 ft
- IATA code : KEL


EDHK - Holtenau

CURRENT METAR :
  • 080920Z 11003KT 9999 FEW016 M00/M01 Q1005

EXPIRED METARs :
  • 080850Z 12004KT 9999 FEW004 SCT016 00/M01 Q1004
  • 080820Z 07004KT 9999 FEW004 BKN016 M00/M00 Q1004
  • 080750Z 12003KT 090V150 9999 SCT004 M00/M00 Q1004
  • 080720Z 12003KT 9999 FEW005 BKN040 M00/M01 Q1004
  • 080650Z AUTO 14004KT 9999 // FEW004/// BKN012/// OVC170/// M00/M00 Q1004

TAF TAF EDHK
Valid from the 08 at 09:00 until the 08 at 18:00 UTC


080800Z 0809/0818 VRB03KT 9999 FEW004 BKN030
PROB30
TEMPO 0809/0810 BKN004
PROB40
TEMPO 0816/0817 2500 BCFG



MET'MAP, your aeronautical weather chart ! - Copyright ORBIFLY December 2007 - Disclaimer

ORBIFLY MET'MAP TEAM :

Programming & Development : Alexandra Zaïnal
Original concept : Baudouin d'Aumeries
Technical & hardware support : Manuel Goepfert
Assistance : Marc-Olivier Méhu




SOURCES & CREDITS :

   NOAA